LRBS/BBU METAR and TAF weather

Enter ICAO airport designator
Station Type Date Time Source
LRBS METAR 2021/07/28 03:30 UTC NOAA

LRBS 280330Z 25002KT CAVOK 22/20 Q1016 NOSIG


Station Type Date Time Source
LRBS Decoded METAR 2021/07/28 03:30 UTC NOAA

Bucuresti / Imh, Romania (LRBS) 44-30N 026-08E 91M
Jul 27, 2021 - 11:30 PM EDT / 2021.07.28 0330 UTC
Wind: from the WSW (250 degrees) at 2 MPH (2 KT):0
Visibility: greater than 7 mile(s):0
Temperature: 71 F (22 C)
Dew Point: 68 F (20 C)
Relative Humidity: 88%
Pressure (altimeter): 30.00 in. Hg (1016 hPa)
ob: LRBS 280330Z 25002KT CAVOK 22/20 Q1016 NOSIG
cycle: 3

Station Type Date Time Source
LRBS TAF 2021/07/27 18:37 UTC NOAA

TAF LRBS 271700Z 2718/2818 VRB04KT CAVOK

Example: see airport list